X  Lukk Metar værinformasjon om luftfart        LEGR Granada
Temperatur
18°C Temperatur
15°C Duggpunkt
83% Luftfuktighet



Vind
31 KM/T
20 MPT
9 M/S
17 KNP



240°
VSV
Nåværende forhold

Mostly Cloudy with Light Rain For det meste Overskyet , lys regn
Trykk 1010 (hPa) - 29.84 (inHg)
Sikt 30 (mil) - 48 (km)
Flyplass
Flyplass-kode LEGR

Plassering: Granada
Avstand: 56 (km)

Metar:
METAR LEGR 202300Z AUTO 24017G27KT 9999 -RA FEW050 BKN098 18/15 Q1012

Tid: 21-10-2020 01:00 CEST